createdAt,value
2022-08-31T00:07:02.744Z,99.0
2022-08-31T00:17:01.727Z,99.0
2022-08-31T00:27:03.695Z,99.0
2022-08-31T00:32:05.367Z,99.0
2022-08-31T00:37:02.802Z,99.0
2022-08-31T00:42:03.722Z,99.0
2022-08-31T00:47:01.599Z,99.0
2022-08-31T01:02:03.696Z,99.0
2022-08-31T01:08:05.812Z,99.0
2022-08-31T01:13:02.757Z,99.0
2022-08-31T01:18:01.969Z,99.0
2022-08-31T01:33:02.058Z,99.0
2022-08-31T01:48:02.676Z,99.0
2022-08-31T02:03:01.831Z,99.0
2022-08-31T02:18:04.850Z,99.0
2022-08-31T02:33:01.739Z,99.0
2022-08-31T02:38:02.402Z,99.0
2022-08-31T02:53:01.708Z,99.0
2022-08-31T02:58:01.576Z,99.0
2022-08-31T03:13:02.763Z,99.0
2022-08-31T03:23:04.611Z,99.0
2022-08-31T03:28:01.705Z,99.0
2022-08-31T03:38:03.191Z,99.0
2022-08-31T03:53:01.618Z,99.0
2022-08-31T04:08:02.419Z,99.0
2022-08-31T04:13:02.995Z,99.0
2022-08-31T04:18:01.785Z,99.0
2022-08-31T04:23:01.740Z,99.0
2022-08-31T04:33:01.580Z,99.0
2022-08-31T04:48:01.585Z,99.0
2022-08-31T04:58:06.757Z,99.0
2022-08-31T05:08:02.061Z,99.0
2022-08-31T05:13:01.672Z,99.0
2022-08-31T05:18:01.637Z,99.0
2022-08-31T05:23:06.642Z,99.0
2022-08-31T05:28:02.602Z,99.0
2022-08-31T05:33:01.653Z,99.0
2022-08-31T05:38:01.645Z,99.0
2022-08-31T05:43:01.906Z,99.0
2022-08-31T05:48:01.902Z,99.0
2022-08-31T05:53:01.587Z,99.0
2022-08-31T05:58:01.600Z,99.0
2022-08-31T06:03:16.378Z,99.0
2022-08-31T06:08:01.377Z,99.0
2022-08-31T06:13:02.727Z,99.0
2022-08-31T06:18:02.090Z,99.0
2022-08-31T06:23:02.472Z,99.0
2022-08-31T06:28:02.417Z,99.0
2022-08-31T06:33:01.381Z,99.0
2022-08-31T06:38:01.385Z,99.0
2022-08-31T06:43:01.388Z,99.0
2022-08-31T06:48:02.617Z,99.0
2022-08-31T06:58:01.826Z,99.0
2022-08-31T07:03:02.030Z,99.0
2022-08-31T07:08:04.063Z,99.0
2022-08-31T07:13:01.715Z,99.0
2022-08-31T07:18:01.593Z,99.0
2022-08-31T07:23:01.787Z,99.0
2022-08-31T07:28:01.602Z,99.0
2022-08-31T07:33:01.670Z,99.0
2022-08-31T07:38:01.586Z,99.0
2022-08-31T07:43:02.668Z,99.0
2022-08-31T07:48:01.742Z,99.0
2022-08-31T07:53:01.906Z,99.0
2022-08-31T07:58:01.616Z,99.0
2022-08-31T08:03:02.065Z,99.0
2022-08-31T08:08:01.874Z,99.0
2022-08-31T08:13:06.033Z,99.0
2022-08-31T08:23:01.790Z,99.0
2022-08-31T08:33:01.600Z,99.0
2022-08-31T08:38:08.278Z,99.0
2022-08-31T08:43:01.720Z,99.0
2022-08-31T08:53:01.724Z,99.0
2022-08-31T08:58:01.595Z,99.0
2022-08-31T09:03:04.178Z,99.0
2022-08-31T09:13:07.850Z,99.0
2022-08-31T09:18:01.597Z,99.0
2022-08-31T09:28:01.721Z,99.0
2022-08-31T09:33:06.591Z,99.0
2022-08-31T09:38:02.609Z,99.0
2022-08-31T09:43:02.990Z,99.0
2022-08-31T09:53:01.991Z,99.0
2022-08-31T09:58:01.719Z,99.0
2022-08-31T10:03:16.543Z,99.0
2022-08-31T10:08:01.534Z,99.0
2022-08-31T10:13:02.003Z,99.0
2022-08-31T10:23:01.799Z,99.0
2022-08-31T10:28:01.600Z,99.0
2022-08-31T10:33:01.810Z,98.68
2022-08-31T10:38:01.709Z,98.68
2022-08-31T10:48:01.390Z,97.21
2022-08-31T10:53:03.259Z,94.98
2022-08-31T10:58:01.794Z,94.98
2022-08-31T11:03:01.718Z,89.81
2022-08-31T11:13:01.755Z,90.0
2022-08-31T11:18:01.668Z,90.0
2022-08-31T11:23:01.649Z,91.83
2022-08-31T11:28:01.583Z,91.83
2022-08-31T11:33:01.714Z,93.76
2022-08-31T11:38:01.656Z,93.76
2022-08-31T11:43:02.328Z,94.27
2022-08-31T11:53:02.684Z,92.96
2022-08-31T11:58:01.715Z,92.96
2022-08-31T12:03:01.812Z,91.31
2022-08-31T12:08:01.578Z,91.31
2022-08-31T12:13:02.764Z,88.38
2022-08-31T12:18:02.608Z,88.38
2022-08-31T12:23:01.775Z,94.63
2022-08-31T12:28:01.622Z,94.63
2022-08-31T12:33:06.535Z,92.67
2022-08-31T12:48:01.389Z,88.05
2022-08-31T12:53:01.919Z,93.85
2022-08-31T12:58:01.707Z,93.85
2022-08-31T13:03:01.943Z,91.63
2022-08-31T13:08:02.642Z,91.63
2022-08-31T13:14:01.661Z,92.5
2022-08-31T13:29:01.824Z,92.92
2022-08-31T13:39:01.740Z,94.39
2022-08-31T13:44:03.899Z,95.31
2022-08-31T13:49:01.599Z,95.31
2022-08-31T13:54:01.681Z,93.15
2022-08-31T13:59:02.608Z,93.15
2022-08-31T14:04:01.705Z,96.42
2022-08-31T14:09:17.977Z,96.42
2022-08-31T14:14:01.593Z,97.09
2022-08-31T14:24:03.008Z,97.02
2022-08-31T14:39:02.197Z,97.41
2022-08-31T14:44:01.713Z,99.0
2022-08-31T14:49:01.592Z,99.0
2022-08-31T14:54:01.633Z,97.59
2022-08-31T14:59:01.583Z,97.59
2022-08-31T15:04:07.006Z,94.52
2022-08-31T15:09:01.607Z,94.52
2022-08-31T15:14:01.792Z,93.22
2022-08-31T15:24:01.792Z,92.03
2022-08-31T15:34:01.431Z,95.18
2022-08-31T15:39:01.369Z,95.18
2022-08-31T15:44:01.635Z,96.01
2022-08-31T15:49:01.657Z,96.01
2022-08-31T15:59:01.573Z,95.01
2022-08-31T16:04:01.582Z,93.4
2022-08-31T16:14:01.676Z,94.22
2022-08-31T16:19:03.131Z,94.22
2022-08-31T16:24:01.648Z,93.29
2022-08-31T16:29:01.613Z,93.29
2022-08-31T16:40:02.017Z,90.77
2022-08-31T16:50:01.728Z,89.12
2022-08-31T16:55:01.668Z,89.08
2022-08-31T17:15:01.605Z,87.44
2022-08-31T17:30:02.286Z,92.88
2022-08-31T17:36:01.783Z,97.64
2022-08-31T17:41:01.757Z,97.64
2022-08-31T17:46:01.580Z,99.0
2022-08-31T17:51:01.728Z,99.0
2022-08-31T17:56:06.567Z,99.0
2022-08-31T18:01:03.341Z,99.0
2022-08-31T18:06:06.579Z,99.0
2022-08-31T18:11:01.625Z,99.0
2022-08-31T18:16:02.694Z,99.0
2022-08-31T18:21:06.722Z,99.0
2022-08-31T18:27:01.646Z,99.0
2022-08-31T18:32:01.582Z,99.0
2022-08-31T18:37:01.573Z,99.0
2022-08-31T18:42:01.578Z,99.0
2022-08-31T18:47:01.910Z,99.0
2022-08-31T18:52:08.156Z,99.0
2022-08-31T18:57:01.537Z,99.0
2022-08-31T19:02:02.421Z,99.0
2022-08-31T19:07:01.774Z,99.0
2022-08-31T19:22:01.669Z,99.0
2022-08-31T19:37:01.599Z,99.0
2022-08-31T19:42:01.755Z,99.0
2022-08-31T19:57:01.737Z,99.0
2022-08-31T20:02:02.238Z,99.0
2022-08-31T20:07:01.586Z,99.0
2022-08-31T20:12:01.702Z,99.0
2022-08-31T20:22:01.717Z,99.0
2022-08-31T20:27:10.110Z,99.0
2022-08-31T20:32:01.730Z,99.0
2022-08-31T20:37:02.026Z,99.0
2022-08-31T20:42:01.845Z,99.0
2022-08-31T20:47:01.580Z,99.0
2022-08-31T20:52:02.849Z,99.0
2022-08-31T20:57:01.611Z,99.0
2022-08-31T21:02:02.162Z,99.0
2022-08-31T21:07:07.292Z,99.0
2022-08-31T21:12:03.011Z,99.0
2022-08-31T21:17:01.939Z,99.0
2022-08-31T21:22:02.805Z,99.0
2022-08-31T21:27:04.020Z,99.0
2022-08-31T21:32:04.448Z,99.0
2022-08-31T21:38:01.667Z,99.0
2022-08-31T21:43:01.638Z,99.0
2022-08-31T21:48:01.603Z,99.0
2022-08-31T21:53:02.996Z,99.0
2022-08-31T22:03:01.869Z,99.0
2022-08-31T22:08:06.795Z,99.0
2022-08-31T22:13:01.734Z,99.0
2022-08-31T22:28:01.887Z,99.0
2022-08-31T22:43:11.275Z,99.0
2022-08-31T22:53:01.716Z,99.0
2022-08-31T23:08:01.805Z,99.0
2022-08-31T23:13:02.215Z,99.0
2022-08-31T23:28:01.652Z,99.0
2022-08-31T23:33:06.830Z,99.0
2022-08-31T23:48:01.867Z,99.0
